Time;durP1;ratioP1;P1;durP2;ratioP2;P2;SDS_P1;SDS_P2;PMS_P1;PMS_P2;Temp;Humidity;BMP_temperature;BMP_pressure;BME280_temperature;BME280_humidity;BME280_pressure;Samples;Min_cycle;Max_cycle;Signal;HPM_P1;HPM_P2
2022/09/14 00:02:30;;;;;;;1.17;1.17;;;;;;;29.15;45.00;98460.31;1865923;76;28182;-79
2022/09/14 00:05:18;;;;;;;1.12;1.12;;;;;;;29.14;45.16;98465.57;1889652;75;28259;-79
2022/09/14 00:08:06;;;;;;;1.17;1.17;;;;;;;29.12;45.35;98462.29;1876460;75;28082;-79
2022/09/14 00:10:55;;;;;;;1.13;1.10;;;;;;;29.09;45.50;98450.44;1872202;75;28212;-77
2022/09/14 00:13:45;;;;;;;1.20;1.10;;;;;;;29.08;45.57;98462.64;1884416;75;28082;-77
2022/09/14 00:16:37;;;;;;;1.87;1.12;;;;;;;29.10;45.60;98451.51;1878242;75;28302;-77
2022/09/14 00:19:28;;;;;;;1.02;1.02;;;;;;;29.08;45.64;98477.85;1872377;75;28221;-77
2022/09/14 00:22:17;;;;;;;1.40;0.93;;;;;;;29.08;45.65;98477.27;1857009;75;28287;-78
2022/09/14 00:25:05;;;;;;;2.40;1.10;;;;;;;29.09;45.61;98468.41;1858423;75;28138;-77
2022/09/14 00:27:55;;;;;;;1.05;0.90;;;;;;;29.07;45.48;98461.81;1867278;75;28147;-77
2022/09/14 00:30:43;;;;;;;1.00;1.00;;;;;;;29.06;45.39;98459.33;1881424;75;28176;-77
2022/09/14 00:33:33;;;;;;;1.00;1.00;;;;;;;29.10;45.19;98463.16;1875448;75;28179;-77
2022/09/14 00:36:27;;;;;;;1.05;1.05;;;;;;;29.10;45.02;98467.30;1857513;75;28160;-77
2022/09/14 00:39:22;;;;;;;1.00;1.00;;;;;;;29.13;44.87;98459.77;1876261;74;30207;-78
2022/09/14 00:42:15;;;;;;;1.00;1.00;;;;;;;29.08;44.87;98463.44;1886969;74;28103;-76
2022/09/14 00:45:15;;;;;;;1.50;1.40;;;;;;;29.10;44.83;98460.39;1880571;75;28090;-77
2022/09/14 00:48:04;;;;;;;1.00;1.00;;;;;;;29.10;44.80;98458.42;1887944;75;28224;-78
2022/09/14 00:50:53;;;;;;;1.10;1.00;;;;;;;29.05;44.93;98468.22;1863640;76;28157;-76
2022/09/14 00:53:42;;;;;;;1.00;1.00;;;;;;;29.06;45.04;98473.16;1869182;75;28131;-78
2022/09/14 00:56:31;;;;;;;1.00;1.00;;;;;;;29.04;45.05;98472.09;1874343;75;28169;-79
2022/09/14 00:59:22;;;;;;;1.03;0.97;;;;;;;29.03;44.98;98473.78;1876076;75;28203;-80
2022/09/14 01:02:16;;;;;;;1.00;1.00;;;;;;;29.01;44.93;98465.77;1877459;75;28157;-79
2022/09/14 01:05:06;;;;;;;1.00;1.00;;;;;;;29.02;44.85;98470.75;1875805;75;28098;-79
2022/09/14 01:08:12;;;;;;;1.02;1.02;;;;;;;29.01;44.85;98475.45;1875752;75;28145;-79
2022/09/14 01:11:15;;;;;;;1.10;1.10;;;;;;;29.00;44.97;98476.59;1867605;75;28062;-79
2022/09/14 01:14:17;;;;;;;1.00;1.00;;;;;;;28.97;45.21;98481.88;1867433;75;28146;-78
2022/09/14 01:17:12;;;;;;;1.13;1.03;;;;;;;28.94;45.40;98490.80;1860859;75;28115;-78
2022/09/14 01:20:15;;;;;;;1.00;1.00;;;;;;;28.93;45.50;98490.52;1880872;75;28152;-78
2022/09/14 01:23:18;;;;;;;1.00;1.00;;;;;;;28.90;45.59;98489.73;1872730;75;28164;-78
2022/09/14 01:26:29;;;;;;;2.70;1.00;;;;;;;28.87;45.71;98488.39;1880080;75;28220;-78
2022/09/14 01:29:33;;;;;;;0.93;0.93;;;;;;;28.84;45.79;98483.48;1891665;75;28095;-79
2022/09/14 01:32:26;;;;;;;1.00;1.00;;;;;;;28.81;46.00;98473.56;1865351;74;28390;-79
2022/09/14 01:35:23;;;;;;;1.30;1.20;;;;;;;28.81;46.06;98483.24;1889528;75;28207;-78
2022/09/14 01:38:17;;;;;;;1.10;1.10;;;;;;;28.83;46.07;98483.77;1874670;75;28086;-79
2022/09/14 01:41:08;;;;;;;0.98;0.98;;;;;;;28.79;45.77;98477.20;1870533;75;32068;-79
2022/09/14 01:44:12;;;;;;;1.07;1.07;;;;;;;28.83;45.09;98491.50;1889861;75;28741;-79
2022/09/14 01:47:03;;;;;;;2.08;1.30;;;;;;;28.82;44.57;98492.64;1882368;75;28171;-78
2022/09/14 01:49:58;;;;;;;1.82;1.20;;;;;;;28.83;44.09;98481.00;1865018;75;28225;-78
2022/09/14 01:52:49;;;;;;;1.10;1.10;;;;;;;28.82;43.82;98489.05;1897982;75;28166;-78
2022/09/14 01:55:44;;;;;;;1.75;1.12;;;;;;;28.82;43.53;98493.19;1887429;75;28099;-78
2022/09/14 01:58:41;;;;;;;1.20;1.10;;;;;;;28.81;43.46;98475.78;1880429;75;28334;-79
2022/09/14 02:01:32;;;;;;;1.07;1.07;;;;;;;28.80;43.39;98490.71;1869283;75;28219;-79
2022/09/14 02:04:23;;;;;;;1.70;1.30;;;;;;;28.81;43.28;98470.25;1882356;75;28188;-79
2022/09/14 02:07:12;;;;;;;1.77;1.30;;;;;;;28.80;43.19;98471.94;1870495;74;28170;-79
2022/09/14 02:10:02;;;;;;;1.17;1.15;;;;;;;28.80;43.13;98477.47;1876381;75;28228;-78
2022/09/14 02:12:52;;;;;;;1.30;1.20;;;;;;;28.81;43.00;98463.89;1859559;75;28223;-78
2022/09/14 02:15:40;;;;;;;1.72;1.15;;;;;;;28.79;43.04;98462.83;1870288;75;28133;-79
2022/09/14 02:18:30;;;;;;;1.20;1.20;;;;;;;28.80;42.96;98460.30;1880965;75;28144;-80
2022/09/14 02:21:21;;;;;;;1.30;1.20;;;;;;;28.80;42.97;98474.70;1861660;76;28107;-80
2022/09/14 02:24:12;;;;;;;1.30;1.20;;;;;;;28.79;43.05;98474.44;1879752;75;28084;-79
2022/09/14 02:27:02;;;;;;;1.27;1.25;;;;;;;28.77;43.08;98452.63;1873292;74;28196;-79
2022/09/14 02:29:51;;;;;;;1.20;1.20;;;;;;;28.76;43.12;98446.83;1878060;75;28125;-79
2022/09/14 02:32:48;;;;;;;1.30;1.20;;;;;;;28.74;43.16;98436.64;1873239;75;28113;-79
2022/09/14 02:35:39;;;;;;;1.50;1.40;;;;;;;28.74;43.21;98449.91;1887616;75;28689;-78
2022/09/14 02:38:40;;;;;;;1.33;1.20;;;;;;;28.71;43.26;98456.02;1864978;75;28690;-79
2022/09/14 02:41:38;;;;;;;1.37;1.27;;;;;;;28.69;43.29;98454.13;1869655;75;28254;-78
2022/09/14 02:44:33;;;;;;;1.50;1.40;;;;;;;28.64;43.41;98463.87;1866155;75;28090;-78
2022/09/14 02:47:45;;;;;;;1.30;1.30;;;;;;;28.66;43.46;98469.91;1870222;75;28201;-79
2022/09/14 02:50:42;;;;;;;1.33;1.20;;;;;;;28.68;43.42;98466.88;1871098;75;28094;-79
2022/09/14 02:53:34;;;;;;;1.30;1.20;;;;;;;28.64;43.49;98456.96;1857513;76;28172;-78
2022/09/14 02:56:22;;;;;;;1.80;1.20;;;;;;;28.63;43.51;98448.42;1867301;75;28174;-77
2022/09/14 02:59:12;;;;;;;1.20;1.20;;;;;;;28.69;43.44;98455.50;1880221;75;28177;-78
2022/09/14 03:02:01;;;;;;;1.45;1.35;;;;;;;28.68;43.36;98451.67;1878076;75;28193;-79
2022/09/14 03:04:49;;;;;;;1.17;1.17;;;;;;;28.67;43.43;98448.63;1871584;75;28164;-79
2022/09/14 03:07:38;;;;;;;1.12;1.12;;;;;;;28.64;43.44;98451.98;1861389;75;28233;-79
2022/09/14 03:10:27;;;;;;;2.30;1.30;;;;;;;28.65;43.44;98438.45;1881701;75;31123;-79
2022/09/14 03:13:17;;;;;;;1.40;1.30;;;;;;;28.64;43.46;98425.73;1881817;75;28098;-79
2022/09/14 03:16:12;;;;;;;1.40;1.17;;;;;;;28.64;43.47;98435.41;1892092;75;28096;-80
2022/09/14 03:19:00;;;;;;;1.00;1.00;;;;;;;28.59;43.65;98439.07;1875800;75;28111;-79
2022/09/14 03:21:48;;;;;;;1.30;1.20;;;;;;;28.59;43.79;98435.51;1858626;75;30522;-79
2022/09/14 03:24:37;;;;;;;1.70;1.30;;;;;;;28.58;43.89;98433.82;1890885;75;28090;-79
2022/09/14 03:27:25;;;;;;;1.52;1.30;;;;;;;28.56;43.99;98430.55;1850663;75;28254;-79
2022/09/14 03:30:13;;;;;;;1.30;1.20;;;;;;;28.56;44.05;98425.84;1896581;75;28145;-78
2022/09/14 03:33:03;;;;;;;1.37;1.27;;;;;;;28.52;44.28;98430.30;1880978;75;28150;-78
2022/09/14 03:35:51;;;;;;;1.22;1.20;;;;;;;28.51;44.38;98416.80;1863330;75;28162;-78
2022/09/14 03:38:40;;;;;;;1.10;1.00;;;;;;;28.53;44.48;98422.28;1890866;75;28210;-78
2022/09/14 03:41:29;;;;;;;1.40;1.30;;;;;;;28.52;44.58;98422.02;1877344;75;28232;-79
2022/09/14 03:44:17;;;;;;;1.30;1.20;;;;;;;28.53;44.77;98434.72;1888467;75;28245;-79
2022/09/14 03:47:07;;;;;;;1.27;1.27;;;;;;;28.55;44.79;98431.09;1875985;75;28211;-79
2022/09/14 03:49:55;;;;;;;1.20;1.20;;;;;;;28.54;45.00;98434.17;1886081;75;28080;-80
2022/09/14 03:52:45;;;;;;;1.47;1.40;;;;;;;28.49;45.22;98439.21;1875466;75;28299;-79
2022/09/14 03:55:37;;;;;;;1.70;1.60;;;;;;;28.50;45.32;98437.24;1879791;75;28165;-79
2022/09/14 03:58:25;;;;;;;1.30;1.20;;;;;;;28.46;45.57;98439.80;1865646;76;28327;-78
2022/09/14 04:01:17;;;;;;;1.20;1.20;;;;;;;28.40;45.97;98439.59;1882135;75;28285;-80
2022/09/14 04:04:05;;;;;;;1.25;1.20;;;;;;;28.35;46.35;98428.64;1880245;75;28204;-79
2022/09/14 04:06:54;;;;;;;1.27;1.20;;;;;;;28.34;46.52;98424.22;1876295;75;28531;-78
2022/09/14 04:09:43;;;;;;;1.20;1.20;;;;;;;28.34;46.50;98413.73;1879361;75;28576;-78
2022/09/14 04:12:37;;;;;;;2.05;1.10;;;;;;;28.36;46.49;98426.13;1872109;75;28115;-83
2022/09/14 04:15:25;;;;;;;1.20;1.10;;;;;;;28.36;46.52;98426.13;1889262;75;28152;-77
2022/09/14 04:18:13;;;;;;;1.27;1.20;;;;;;;28.42;46.44;98441.52;1877310;75;28185;-76
2022/09/14 04:21:05;;;;;;;1.12;1.12;;;;;;;28.40;46.30;98420.84;1866007;75;28225;-77
2022/09/14 04:23:56;;;;;;;1.75;1.22;;;;;;;28.41;46.14;98411.41;1860823;76;28110;-77
2022/09/14 04:26:45;;;;;;;1.30;1.10;;;;;;;28.40;45.87;98403.68;1865468;76;28406;-77
2022/09/14 04:29:36;;;;;;;1.30;1.30;;;;;;;28.44;45.67;98410.83;1855738;76;28147;-76
2022/09/14 04:32:25;;;;;;;1.37;1.27;;;;;;;28.44;45.42;98419.94;1867357;76;28106;-77
2022/09/14 04:35:13;;;;;;;1.40;1.30;;;;;;;28.44;45.28;98440.66;1849898;76;31186;-77
2022/09/14 04:38:01;;;;;;;1.20;1.20;;;;;;;28.47;45.16;98458.59;1843104;76;28352;-77
2022/09/14 04:40:50;;;;;;;1.20;1.20;;;;;;;28.46;45.15;98461.07;1870006;76;28170;-77
2022/09/14 04:43:39;;;;;;;1.40;1.30;;;;;;;28.46;45.25;98448.09;1872249;76;28184;-78
2022/09/14 04:46:30;;;;;;;1.40;1.30;;;;;;;28.45;45.51;98435.38;1857116;76;28171;-77
2022/09/14 04:49:20;;;;;;;1.98;1.22;;;;;;;28.43;45.93;98430.72;1863098;76;28159;-78
2022/09/14 04:52:08;;;;;;;1.95;1.50;;;;;;;28.44;46.09;98417.17;1860014;76;28104;-79
2022/09/14 04:54:57;;;;;;;1.57;1.47;;;;;;;28.43;46.23;98429.34;1873987;76;28152;-73
2022/09/14 04:57:45;;;;;;;1.35;1.30;;;;;;;28.40;46.18;98424.98;1858281;75;28183;-72
2022/09/14 05:00:35;;;;;;;1.40;1.40;;;;;;;28.37;46.40;98425.02;1852557;76;28102;-73
2022/09/14 05:03:24;;;;;;;1.65;1.35;;;;;;;28.39;46.77;98424.16;1862697;76;28153;-72
2022/09/14 05:06:15;;;;;;;1.20;1.10;;;;;;;28.39;47.09;98414.48;1858091;76;28142;-72
2022/09/14 05:09:06;;;;;;;1.60;1.50;;;;;;;28.38;47.49;98420.32;1857186;75;28152;-73
2022/09/14 05:11:54;;;;;;;3.77;1.72;;;;;;;28.36;47.75;98439.11;1853490;76;28165;-73
2022/09/14 05:14:44;;;;;;;1.50;1.40;;;;;;;28.36;48.07;98456.51;1848603;76;28226;-73
2022/09/14 05:17:34;;;;;;;1.30;1.20;;;;;;;28.41;48.06;98470.25;1854151;76;28393;-72
2022/09/14 05:20:23;;;;;;;1.30;1.30;;;;;;;28.39;48.20;98457.86;1863109;76;28085;-72
2022/09/14 05:23:11;;;;;;;1.20;1.20;;;;;;;28.35;48.44;98481.12;1863756;76;31168;-73
2022/09/14 05:26:00;;;;;;;1.50;1.40;;;;;;;28.40;48.40;98495.42;1865481;76;28194;-73
2022/09/14 05:28:53;;;;;;;1.50;1.40;;;;;;;28.44;48.48;98501.44;1868096;75;28159;-72
2022/09/14 05:31:42;;;;;;;1.70;1.60;;;;;;;28.48;48.40;98510.77;1865084;76;28093;-86
2022/09/14 05:34:31;;;;;;;1.50;1.40;;;;;;;28.51;48.36;98521.79;1858760;76;28198;-74
2022/09/14 05:37:20;;;;;;;1.60;1.50;;;;;;;28.49;48.15;98515.19;1868190;76;28216;-79
2022/09/14 05:40:11;;;;;;;2.70;1.30;;;;;;;28.51;48.21;98518.47;1869230;75;28100;-82
2022/09/14 05:42:59;;;;;;;1.95;1.37;;;;;;;28.50;48.18;98526.48;1864110;76;28090;-82
2022/09/14 05:45:47;;;;;;;1.72;1.62;;;;;;;28.55;48.19;98533.33;1868066;76;28090;-82
2022/09/14 05:48:37;;;;;;;2.05;1.72;;;;;;;28.54;48.24;98537.78;1873096;75;28152;-84
2022/09/14 05:51:27;;;;;;;1.72;1.62;;;;;;;28.55;48.33;98560.97;1837170;76;28195;-83
